^^

Meteo Aereoporti Centro-Italia

 

 
LIRZ - Perugia S.Egidio (208 m.)
Dati ricevuti: 18/06/2021 19:20
Sereno
Sereno
 Vento da SSW
Vento: SSW 11 km/h
TEMPERATURA: 30°C
Indice di Calore: 31°C
P.to di Rugiada: 17°C
Umidità: 46%
Pressione: 1017 hPa
Nuvole: Sereno
Visibilità: 10 km
2021/06/18 17:20 LIRZ 181720Z AUTO 21006KT 160V240 9999 NCD 30/17 Q1017
 
LIPY - Ancona Falconara (12 m.)
Dati ricevuti: 18/06/2021 19:20
Sereno
Sereno
 Vento da SSE
Vento: SSE 7 km/h
TEMPERATURA: 29°C
Indice di Calore: 29°C
P.to di Rugiada: 17°C
Umidità: 48%
Pressione: 1016 hPa
Nuvole: Sereno
Visibilità: 10 km
2021/06/18 17:20 LIPY 181720Z AUTO 16004KT 110V190 9999 NCD 29/17 Q1016
 
LIPR - Rimini Miramare (12 m.)
Dati ricevuti: 18/06/2021 19:20
Sereno
Sereno
 Vento da ESE
Vento: ESE 11 km/h
TEMPERATURA: 25°C
P.to di Rugiada: 19°C
Umidità: 69%
Pressione: 1016 hPa
Condizioni generali: Sereno
Visibilità: oltre 10 km
2021/06/18 17:20 LIPR 181720Z 11006KT CAVOK 25/19 Q1016
 
LIRF - Roma Fiumicino (2 m.)
Dati ricevuti: 18/06/2021 19:20
Sereno
Sereno
 Vento da W
Vento: W 9 km/h
TEMPERATURA: 26°C
P.to di Rugiada: 16°C
Umidità: 54%
Pressione: 1018 hPa
Condizioni generali: Sereno
Visibilità: oltre 10 km
2021/06/18 17:20 LIRF 181720Z 26005KT 230V290 CAVOK 26/16 Q1018 NOSIG
 
LIRA - Roma Ciampino (129 m.)
Dati ricevuti: 18/06/2021 19:20
Sereno
Sereno
 Vento da WSW
Vento: WSW 11 km/h
TEMPERATURA: 26°C
P.to di Rugiada: 15°C
Umidità: 51%
Pressione: 1018 hPa
Condizioni generali: Sereno
Visibilità: oltre 10 km
2021/06/18 17:20 LIRA 181720Z 24006KT 210V270 CAVOK 26/15 Q1018
 
LIRU - Roma Urbe (17 m.)
Dati ricevuti: 18/06/2021 18:50
Sereno
Sereno
 Vento da WSW
Vento: WSW 13 km/h
TEMPERATURA: 27°C
Indice di Calore: 27°C
P.to di Rugiada: 15°C
Umidità: 48%
Pressione: 1018 hPa
Condizioni generali: Sereno
Visibilità: oltre 10 km
2021/06/18 16:50 LIRU 181650Z 24007KT 200V270 CAVOK 27/15 Q1018
 
LIVF - Frontone (570 m.)
Dati ricevuti: 18/06/2021 07:55
Dati non aggiornati
Sereno
Sereno
 Vento da calm
Vento: Calma
TEMPERATURA: 23°C
P.to di Rugiada: 17°C
Umidità: 69%
Pressione: 1018 hPa
Condizioni generali: Sereno
Visibilità: oltre 10 km
2021/06/18 05:55 LIVF 180555Z 00000KT CAVOK 23/17 Q1018 RMK BKN SCT060 SCT090 MON LIB VAL E FOSCHIA VIS MIN 9999E
 
LIRQ - Firenze Peretola (40 m.)
Dati ricevuti: 18/06/2021 19:20
Sereno
Sereno
 Vento da W
Vento: W 19 km/h
TEMPERATURA: 29°C
Indice di Calore: 29°C
P.to di Rugiada: 18°C
Umidità: 51%
Pressione: 1016 hPa
Condizioni generali: Sereno
Visibilità: oltre 10 km
2021/06/18 17:20 LIRQ 181720Z 28010KT 250V310 CAVOK 29/18 Q1016
 
LIBP - Pescara (10 m.)
Dati ricevuti: 18/06/2021 19:20
Sereno
Sereno
 Vento da ENE
Vento: ENE 7 km/h
TEMPERATURA: 28°C
Indice di Calore: 28°C
P.to di Rugiada: 15°C
Umidità: 45%
Pressione: 1016 hPa
Nuvole: Sereno
Visibilità: 10 km
2021/06/18 17:20 LIBP 181720Z AUTO 07004KT 040V100 9999 NCD 28/15 Q1016
 
LIRV - Viterbo (300 m.)
Dati ricevuti: 18/06/2021 18:55
Sereno
Sereno
 Vento da WSW
Vento: WSW 17 km/h
TEMPERATURA: 26°C
P.to di Rugiada: 14°C
Umidità: 48%
Pressione: 1018 hPa
Condizioni generali: Sereno
Visibilità: oltre 10 km
2021/06/18 16:55 LIRV 181655Z 24009KT CAVOK 26/14 Q1018
 
LIQN - Rieti (389 m.)
Dati ricevuti: 18/06/2021 18:50
Qualche nuvola
Qualche nuvola
 Vento da NW
Vento: NW 6 km/h
TEMPERATURA: 28°C
Indice di Calore: 29°C
P.to di Rugiada: 18°C
Umidità: 55%
Pressione: 1019 hPa
Nuvole: Qualche nuvola
Visibilità: 10 km
Dettagli Nuvole: Qualche nuvola 1372 m
2021/06/18 16:50 LIQN 181650Z 31003KT 240V360 9999 FEW045TCU 28/18 Q1019
 
LIRG - Guidonia -RM- (88 m.)
Dati ricevuti: 18/06/2021 18:55
Sereno
Sereno
 Vento da WSW
Vento: WSW 13 km/h
TEMPERATURA: 29°C
Indice di Calore: 29°C
P.to di Rugiada: 15°C
Umidità: 43%
Pressione: 1018 hPa
Condizioni generali: Sereno
Visibilità: oltre 10 km
2021/06/18 16:55 LIRG 181655Z 25007KT CAVOK 29/15 Q1018
 
LIRK - Terminillo -RI-(1874 m.)
Dati ricevuti: 18/06/2021 18:55

 Vento da NW
Vento: NW 15 km/h
TEMPERATURA: 16°C
P.to di Rugiada: 13°C
Umidità: 83%
Pressione: 1027 hPa
2021/06/18 16:55 LIRK 181655Z AUTO 31008KT //// 16/13 Q1027
 
LIPK - Forlì (27 m.)
Dati ricevuti: 18/06/2021 18:50
Sereno
Sereno
 Vento da ESE
Vento: ESE 7 km/h
TEMPERATURA: 31°C
Indice di Calore: 31°C
P.to di Rugiada: 16°C
Umidità: 40%
Pressione: 1015 hPa
Condizioni generali: Sereno
Visibilità: oltre 10 km
2021/06/18 16:50 LIPK 181650Z 12004KT CAVOK 31/16 Q1015
 
LIRS - Grosseto (5 m.)
Dati ricevuti: 18/06/2021 18:55
Sereno
Sereno
 Vento da SSW
Vento: SSW 11 km/h
TEMPERATURA: 24°C
P.to di Rugiada: 19°C
Umidità: 74%
Pressione: 1017 hPa
Condizioni generali: Sereno
Visibilità: oltre 10 km
2021/06/18 16:55 LIRS 181655Z 21006KT CAVOK 24/19 Q1017
 
LIRP - Pisa S.Giusto (2 m.)
Dati ricevuti: 18/06/2021 19:15
Sereno
Sereno
 Vento da WNW
Vento: WNW 9 km/h
TEMPERATURA: 27°C
Indice di Calore: 28°C
P.to di Rugiada: 16°C
Umidità: 51%
Pressione: 1017 hPa
Condizioni generali: Sereno
Visibilità: oltre 10 km
2021/06/18 17:15 LIRP 181715Z 29005KT 250V320 CAVOK 27/16 Q1017 NOSIG